createdAt,value
2019-05-19T00:04:28.897Z,100170.48
2019-05-19T00:09:31.613Z,100174.62
2019-05-19T00:14:34.347Z,100182.34
2019-05-19T00:19:37.048Z,100180.95
2019-05-19T00:24:39.734Z,100179.17
2019-05-19T00:29:42.458Z,100181.61
2019-05-19T00:34:45.260Z,100187.52
2019-05-19T00:39:47.975Z,100177.83
2019-05-19T00:44:50.717Z,100175.84
2019-05-19T00:49:55.166Z,100167.27
2019-05-19T00:54:57.936Z,100160.32
2019-05-19T01:00:01.306Z,100151.29
2019-05-19T01:05:04.391Z,100156.15
2019-05-19T01:10:09.211Z,100149.26
2019-05-19T01:15:12.210Z,100150.19
2019-05-19T01:20:15.514Z,100140.48
2019-05-19T01:25:18.215Z,100144.92
2019-05-19T01:30:21.102Z,100138.34
2019-05-19T01:35:23.816Z,100145.52
2019-05-19T01:40:26.487Z,100137.16
2019-05-19T01:45:29.205Z,100124.52
2019-05-19T01:50:31.923Z,100133.43
2019-05-19T01:55:34.624Z,100124.08
2019-05-19T02:00:37.412Z,100129.22
2019-05-19T02:05:40.113Z,100125.69
2019-05-19T02:10:42.799Z,100126.56
2019-05-19T02:15:45.513Z,100121.22
2019-05-19T02:20:48.229Z,100122.66
2019-05-19T02:25:50.917Z,100120.70
2019-05-19T02:30:53.776Z,100124.80
2019-05-19T02:35:56.493Z,100119.11
2019-05-19T02:41:02.335Z,100116.57
2019-05-19T02:46:05.845Z,100117.40
2019-05-19T02:51:10.595Z,100120.84
2019-05-19T02:56:13.788Z,100118.00
2019-05-19T03:01:16.483Z,100116.67
2019-05-19T03:06:19.194Z,100111.96
2019-05-19T03:11:21.940Z,100115.14
2019-05-19T03:16:24.644Z,100115.47
2019-05-19T03:21:27.352Z,100122.75
2019-05-19T03:26:30.072Z,100127.42
2019-05-19T03:31:40.261Z,100120.59
2019-05-19T03:36:42.957Z,100125.48
2019-05-19T03:41:45.701Z,100131.40
2019-05-19T03:46:48.421Z,100129.19
2019-05-19T03:51:51.158Z,100135.59
2019-05-19T03:56:53.857Z,100143.74
2019-05-19T04:01:56.551Z,100148.25
2019-05-19T04:06:59.264Z,100146.50
2019-05-19T04:12:02.002Z,100138.74
2019-05-19T04:17:04.698Z,100138.16
2019-05-19T04:22:07.380Z,100139.39
2019-05-19T04:27:10.098Z,100133.48
2019-05-19T04:32:12.808Z,100137.35
2019-05-19T04:37:15.746Z,100148.53
2019-05-19T04:42:18.455Z,100152.50
2019-05-19T04:47:21.197Z,100155.80
2019-05-19T04:52:24.872Z,100161.48
2019-05-19T04:57:28.931Z,100161.55
2019-05-19T05:02:32.144Z,100162.10
2019-05-19T05:07:34.835Z,100159.27
2019-05-19T05:12:37.538Z,100154.19
2019-05-19T05:17:40.241Z,100150.75
2019-05-19T05:22:42.961Z,100137.69
2019-05-19T05:27:45.661Z,100141.50
2019-05-19T05:32:48.368Z,100144.93
2019-05-19T05:37:51.069Z,100141.82
2019-05-19T05:42:54.117Z,100153.20
2019-05-19T05:47:56.899Z,100158.64
2019-05-19T05:52:59.605Z,100153.56
2019-05-19T05:58:02.363Z,100159.55
2019-05-19T06:03:05.244Z,100158.20
2019-05-19T06:08:07.973Z,100150.61
2019-05-19T06:13:12.539Z,100146.39
2019-05-19T06:18:15.244Z,100145.37
2019-05-19T06:23:17.968Z,100142.13
2019-05-19T06:28:20.688Z,100139.06
2019-05-19T06:33:23.425Z,100145.62
2019-05-19T06:38:26.230Z,100148.93
2019-05-19T06:43:29.070Z,100148.75
2019-05-19T06:48:31.811Z,100147.62
2019-05-19T06:53:34.796Z,100140.34
2019-05-19T06:58:37.614Z,100132.68
2019-05-19T07:03:40.408Z,100132.30
2019-05-19T07:08:43.115Z,100132.20
2019-05-19T07:13:45.951Z,100134.52
2019-05-19T07:18:48.671Z,100129.24
2019-05-19T07:23:51.385Z,100123.52
2019-05-19T07:28:54.147Z,100128.77
2019-05-19T07:33:56.859Z,100126.47
2019-05-19T07:38:59.734Z,100114.72
2019-05-19T07:44:02.494Z,100117.11
2019-05-19T07:49:05.207Z,100116.95
2019-05-19T07:54:09.675Z,100115.17
2019-05-19T07:59:12.427Z,100115.05
2019-05-19T08:04:15.130Z,100112.89
2019-05-19T08:09:17.840Z,100120.05
2019-05-19T08:14:20.571Z,100112.35
2019-05-19T08:19:23.305Z,100117.16
2019-05-19T08:24:26.354Z,100112.25
2019-05-19T08:29:29.177Z,100114.38
2019-05-19T08:34:31.899Z,100118.37
2019-05-19T08:39:34.675Z,100116.09
2019-05-19T08:44:39.285Z,100115.45
2019-05-19T08:49:41.994Z,100113.03
2019-05-19T08:54:44.705Z,100115.54
2019-05-19T08:59:47.512Z,100105.32
2019-05-19T09:04:50.262Z,100115.27
2019-05-19T09:09:53.082Z,100112.98
2019-05-19T09:14:56.028Z,100112.16
2019-05-19T09:19:58.718Z,100110.69
2019-05-19T09:25:01.589Z,100106.85
2019-05-19T09:30:05.840Z,100104.63
2019-05-19T09:35:08.757Z,100100.96
2019-05-19T09:40:11.682Z,100098.24
2019-05-19T09:45:14.719Z,100082.47
2019-05-19T09:50:17.839Z,100081.37
2019-05-19T09:55:20.574Z,100084.98
2019-05-19T10:00:23.481Z,100078.66
2019-05-19T10:05:26.201Z,100081.03
2019-05-19T10:10:39.300Z,100069.94
2019-05-19T10:15:42.166Z,100061.65
2019-05-19T10:20:45.037Z,100062.53
2019-05-19T10:25:47.796Z,100062.84
2019-05-19T10:30:50.515Z,100061.47
2019-05-19T10:35:53.220Z,100050.20
2019-05-19T10:40:56.033Z,100053.41
2019-05-19T10:45:59.296Z,100045.73
2019-05-19T10:51:05.688Z,100050.64
2019-05-19T10:56:10.540Z,100048.17
2019-05-19T11:01:13.760Z,100045.53
2019-05-19T11:06:16.784Z,100045.83
2019-05-19T11:11:20.437Z,100035.72
2019-05-19T11:16:23.861Z,100020.05
2019-05-19T11:21:27.406Z,100021.29
2019-05-19T11:26:31.365Z,100020.52
2019-05-19T11:31:34.749Z,100024.10
2019-05-19T11:36:37.449Z,100016.64
2019-05-19T11:41:40.158Z,100019.08
2019-05-19T11:46:42.903Z,100023.70
2019-05-19T11:51:45.626Z,100025.89
2019-05-19T11:56:48.348Z,100028.42
2019-05-19T12:01:53.381Z,100033.60
2019-05-19T12:06:56.284Z,100029.39
2019-05-19T12:11:59.025Z,100026.58
2019-05-19T12:17:01.785Z,100017.34
2019-05-19T12:22:04.508Z,100010.77
2019-05-19T12:27:07.245Z,100006.78
2019-05-19T12:32:09.974Z,99999.05
2019-05-19T12:37:12.679Z,99992.95
2019-05-19T12:42:15.362Z,99991.54
2019-05-19T12:47:18.098Z,99979.63
2019-05-19T12:52:20.864Z,99975.64
2019-05-19T12:57:23.605Z,99976.00
2019-05-19T13:02:26.323Z,99974.38
2019-05-19T13:07:29.058Z,99969.73
2019-05-19T13:12:31.772Z,99963.02
2019-05-19T13:17:34.500Z,99958.42
2019-05-19T13:22:37.206Z,99953.09
2019-05-19T13:27:39.950Z,99953.27
2019-05-19T13:32:42.650Z,99952.59
2019-05-19T13:37:45.386Z,99951.53
2019-05-19T13:42:48.101Z,99947.19
2019-05-19T13:47:51.151Z,99945.27
2019-05-19T13:52:53.906Z,99951.12
2019-05-19T13:57:56.607Z,99952.59
2019-05-19T14:02:59.351Z,99945.16
2019-05-19T14:08:02.068Z,99939.78
2019-05-19T14:13:04.809Z,99935.74
2019-05-19T14:18:07.553Z,99929.90
2019-05-19T14:23:10.274Z,99933.37
2019-05-19T14:28:13.049Z,99925.45
2019-05-19T14:33:15.791Z,99915.17
2019-05-19T14:38:18.520Z,99917.38
2019-05-19T14:43:21.639Z,99914.34
2019-05-19T14:48:24.398Z,99912.81
2019-05-19T14:53:27.174Z,99921.45
2019-05-19T14:58:29.929Z,99915.34
2019-05-19T15:03:33.615Z,99912.19
2019-05-19T15:08:36.386Z,99910.06
2019-05-19T15:13:39.354Z,99906.52
2019-05-19T15:18:42.082Z,99907.03
2019-05-19T15:23:44.869Z,99906.72
2019-05-19T15:28:47.608Z,99907.88
2019-05-19T15:33:51.079Z,99900.79
2019-05-19T15:38:53.793Z,99904.83
2019-05-19T15:43:56.560Z,99903.75
2019-05-19T15:48:59.302Z,99893.84
2019-05-19T15:54:02.071Z,99881.73
2019-05-19T15:59:04.787Z,99881.33
2019-05-19T16:04:07.501Z,99883.09
2019-05-19T16:09:10.228Z,99878.19
2019-05-19T16:14:12.978Z,99875.23
2019-05-19T16:19:15.713Z,99876.95
2019-05-19T16:24:18.458Z,99878.34
2019-05-19T16:29:21.224Z,99871.04
2019-05-19T16:34:23.940Z,99870.70
2019-05-19T16:39:26.709Z,99869.73
2019-05-19T16:44:29.437Z,99864.89
2019-05-19T16:49:32.170Z,99869.58
2019-05-19T16:54:37.222Z,99873.52
2019-05-19T16:59:39.919Z,99865.58
2019-05-19T17:04:42.643Z,99865.39
2019-05-19T17:09:45.340Z,99864.42
2019-05-19T17:14:49.226Z,99859.61
2019-05-19T17:19:52.101Z,99866.33
2019-05-19T17:24:54.917Z,99865.42
2019-05-19T17:29:58.820Z,99858.18
2019-05-19T17:35:01.565Z,99862.59
2019-05-19T17:40:04.971Z,99864.17
2019-05-19T17:45:09.164Z,99874.29
2019-05-19T17:50:14.222Z,99872.80
2019-05-19T17:55:16.927Z,99876.59
2019-05-19T18:00:38.711Z,99884.20
2019-05-19T18:05:41.406Z,99872.53
2019-05-19T18:10:44.115Z,99874.52
2019-05-19T18:15:46.839Z,99873.01
2019-05-19T18:20:49.685Z,99878.95
2019-05-19T18:25:52.389Z,99879.68
2019-05-19T18:30:55.224Z,99890.41
2019-05-19T18:35:58.238Z,99895.55
2019-05-19T18:41:01.056Z,99890.94
2019-05-19T18:46:03.811Z,99896.39
2019-05-19T18:51:06.502Z,99904.26
2019-05-19T18:56:09.309Z,99902.14
2019-05-19T19:01:12.037Z,99905.22
2019-05-19T19:06:14.887Z,99910.27
2019-05-19T19:11:17.593Z,99913.30
2019-05-19T19:16:20.359Z,99914.31
2019-05-19T19:21:23.093Z,99922.41
2019-05-19T19:26:25.819Z,99933.55
2019-05-19T19:31:28.523Z,99934.23
2019-05-19T19:36:31.285Z,99940.30
2019-05-19T19:41:34.388Z,99945.11
2019-05-19T19:46:37.112Z,99949.67
2019-05-19T19:51:39.807Z,99946.66
2019-05-19T19:56:42.507Z,99945.78
2019-05-19T20:01:45.368Z,99950.65
2019-05-19T20:06:48.349Z,99960.61
2019-05-19T20:11:51.090Z,99949.82
2019-05-19T20:16:53.788Z,99953.56
2019-05-19T20:21:56.588Z,99962.36
2019-05-19T20:26:59.289Z,99964.89
2019-05-19T20:32:02.015Z,99977.17
2019-05-19T20:37:05.022Z,99976.45
2019-05-19T20:42:07.823Z,99980.78
2019-05-19T20:47:10.553Z,99979.83
2019-05-19T20:52:13.262Z,99985.48
2019-05-19T20:57:16.155Z,99984.48
2019-05-19T21:02:18.893Z,99978.86
2019-05-19T21:07:21.620Z,99985.08
2019-05-19T21:12:24.594Z,99977.89
2019-05-19T21:17:27.337Z,99983.50
2019-05-19T21:22:30.147Z,99981.70
2019-05-19T21:27:32.853Z,99984.76
2019-05-19T21:32:35.607Z,99988.63
2019-05-19T21:37:38.334Z,99992.94
2019-05-19T21:42:41.055Z,99989.09
2019-05-19T21:47:43.825Z,99996.95
2019-05-19T21:52:46.535Z,100006.07
2019-05-19T21:57:49.262Z,100002.81
2019-05-19T22:02:51.972Z,100002.36
2019-05-19T22:08:14.069Z,100004.22
2019-05-19T22:13:16.812Z,100009.55
2019-05-19T22:18:19.600Z,100009.20
2019-05-19T22:23:22.289Z,100013.91
2019-05-19T22:28:24.980Z,100014.91
2019-05-19T22:33:27.678Z,100019.95
2019-05-19T22:38:30.421Z,100011.66
2019-05-19T22:43:33.102Z,100004.95
2019-05-19T22:48:35.809Z,100004.70
2019-05-19T22:53:38.488Z,100002.06
2019-05-19T22:58:41.716Z,99996.02
2019-05-19T23:03:44.481Z,99992.08
2019-05-19T23:08:47.211Z,99994.50
2019-05-19T23:13:49.943Z,100003.06
2019-05-19T23:18:52.667Z,99998.24
2019-05-19T23:23:55.384Z,100003.05
2019-05-19T23:28:58.075Z,100001.68
2019-05-19T23:34:00.795Z,99996.94
2019-05-19T23:39:05.193Z,99995.51
2019-05-19T23:44:08.162Z,99988.25
2019-05-19T23:49:10.886Z,99987.78
2019-05-19T23:54:13.602Z,99979.96
2019-05-19T23:59:16.307Z,99981.14
